createdAt,value
2022-12-31T00:00:45.380Z,984.82
2022-12-31T00:01:45.354Z,984.85
2022-12-31T00:02:45.499Z,984.86
2022-12-31T00:03:45.314Z,984.85
2022-12-31T00:04:45.314Z,984.86
2022-12-31T00:05:45.317Z,984.87
2022-12-31T00:06:45.304Z,984.81
2022-12-31T00:08:16.033Z,984.85
2022-12-31T00:09:15.999Z,984.82
2022-12-31T00:10:16.010Z,984.88
2022-12-31T00:11:15.980Z,984.87
2022-12-31T00:12:16.008Z,984.83
2022-12-31T00:13:15.949Z,984.91
2022-12-31T00:14:15.959Z,984.95
2022-12-31T00:15:15.940Z,984.92
2022-12-31T00:16:15.942Z,984.91
2022-12-31T00:17:15.923Z,984.86
2022-12-31T00:18:15.913Z,984.89
2022-12-31T00:19:15.933Z,984.86
2022-12-31T00:20:15.902Z,984.92
2022-12-31T00:21:15.874Z,984.94
2022-12-31T00:22:15.872Z,984.95
2022-12-31T00:23:15.898Z,984.95
2022-12-31T00:24:15.881Z,984.92
2022-12-31T00:25:15.831Z,985.01
2022-12-31T00:26:15.853Z,984.98
2022-12-31T00:27:15.803Z,985.05
2022-12-31T00:28:15.815Z,985.03
2022-12-31T00:29:15.822Z,985.03
2022-12-31T00:30:15.777Z,985.06
2022-12-31T00:31:15.835Z,985.03
2022-12-31T00:32:15.762Z,985.05
2022-12-31T00:33:15.743Z,985.10
2022-12-31T00:34:15.751Z,985.11
2022-12-31T00:35:15.761Z,985.08
2022-12-31T00:36:15.746Z,985.10
2022-12-31T00:37:15.706Z,985.09
2022-12-31T00:38:15.721Z,985.08
2022-12-31T00:39:15.702Z,985.13
2022-12-31T00:40:15.689Z,985.09
2022-12-31T00:41:16.655Z,985.11
2022-12-31T00:42:15.661Z,985.12
2022-12-31T00:43:15.657Z,985.18
2022-12-31T00:44:15.643Z,985.17
2022-12-31T00:45:15.628Z,985.20
2022-12-31T00:46:15.672Z,985.21
2022-12-31T00:47:15.612Z,985.17
2022-12-31T00:48:15.600Z,985.25
2022-12-31T00:49:15.587Z,985.22
2022-12-31T00:50:15.597Z,985.25
2022-12-31T00:51:15.604Z,985.24
2022-12-31T00:52:15.584Z,985.26
2022-12-31T00:53:15.538Z,985.34
2022-12-31T00:54:15.540Z,985.36
2022-12-31T00:55:15.532Z,985.34
2022-12-31T00:56:15.543Z,985.38
2022-12-31T00:57:15.495Z,985.36
2022-12-31T00:58:15.512Z,985.36
2022-12-31T00:59:15.485Z,985.37
2022-12-31T01:00:15.462Z,985.38
2022-12-31T01:01:15.607Z,985.40
2022-12-31T01:02:15.674Z,985.46
2022-12-31T01:03:15.477Z,985.42
2022-12-31T01:04:15.440Z,985.49
2022-12-31T01:05:15.410Z,985.46
2022-12-31T01:06:15.428Z,985.40
2022-12-31T01:07:15.389Z,985.40
2022-12-31T01:08:15.411Z,985.42
2022-12-31T01:09:15.360Z,985.39
2022-12-31T01:10:15.380Z,985.40
2022-12-31T01:11:15.340Z,985.41
2022-12-31T01:12:15.351Z,985.44
2022-12-31T01:13:15.322Z,985.40
2022-12-31T01:14:15.377Z,985.48
2022-12-31T01:15:15.315Z,985.45
2022-12-31T01:16:15.346Z,985.53
2022-12-31T01:17:15.295Z,985.56
2022-12-31T01:18:15.301Z,985.61
2022-12-31T01:19:15.271Z,985.63
2022-12-31T01:20:15.304Z,985.63
2022-12-31T01:21:15.243Z,985.64
2022-12-31T01:22:15.243Z,985.63
2022-12-31T01:23:15.211Z,985.62
2022-12-31T01:24:15.250Z,985.62
2022-12-31T01:25:15.204Z,985.64
2022-12-31T01:26:15.241Z,985.59
2022-12-31T01:27:15.171Z,985.59
2022-12-31T01:28:15.180Z,985.55
2022-12-31T01:29:15.183Z,985.56
2022-12-31T01:30:15.194Z,985.58
2022-12-31T01:31:15.195Z,985.59
2022-12-31T01:32:15.792Z,985.62
2022-12-31T01:33:15.142Z,985.64
2022-12-31T01:34:15.122Z,985.65
2022-12-31T01:35:15.111Z,985.67
2022-12-31T01:36:18.964Z,985.69
2022-12-31T01:37:16.280Z,985.63
2022-12-31T01:38:15.079Z,985.65
2022-12-31T01:39:15.042Z,985.66
2022-12-31T01:40:15.064Z,985.62
2022-12-31T01:41:15.032Z,985.66
2022-12-31T01:42:15.061Z,985.66
2022-12-31T01:43:15.052Z,985.65
2022-12-31T01:44:15.049Z,985.62
2022-12-31T01:45:14.984Z,985.68
2022-12-31T01:46:15.023Z,985.63
2022-12-31T01:47:14.986Z,985.62
2022-12-31T01:48:14.984Z,985.67
2022-12-31T01:49:14.987Z,985.63
2022-12-31T01:50:14.975Z,985.65
2022-12-31T01:51:14.931Z,985.72
2022-12-31T01:52:14.937Z,985.69
2022-12-31T01:53:14.921Z,985.72
2022-12-31T01:54:14.910Z,985.79
2022-12-31T01:55:14.891Z,985.80
2022-12-31T01:56:14.884Z,985.82
2022-12-31T01:57:14.861Z,985.80
2022-12-31T01:58:14.887Z,985.78
2022-12-31T01:59:14.853Z,985.81
2022-12-31T02:00:15.000Z,985.82
2022-12-31T02:01:14.993Z,985.83
2022-12-31T02:02:14.921Z,985.85
2022-12-31T02:03:14.866Z,985.87
2022-12-31T02:04:14.850Z,985.84
2022-12-31T02:05:14.795Z,985.80
2022-12-31T02:06:14.793Z,985.86
2022-12-31T02:07:14.761Z,985.91
2022-12-31T02:08:14.761Z,985.88
2022-12-31T02:09:14.743Z,985.94
2022-12-31T02:10:14.743Z,985.87
2022-12-31T02:11:14.744Z,985.88
2022-12-31T02:12:14.736Z,985.80
2022-12-31T02:13:14.718Z,985.77
2022-12-31T02:14:14.715Z,985.76
2022-12-31T02:15:14.683Z,985.73
2022-12-31T02:16:14.746Z,985.75
2022-12-31T02:17:14.684Z,985.64
2022-12-31T02:18:14.671Z,985.66
2022-12-31T02:19:14.637Z,985.67
2022-12-31T02:20:14.645Z,985.64
2022-12-31T02:21:14.641Z,985.67
2022-12-31T02:22:14.643Z,985.64
2022-12-31T02:23:14.626Z,985.59
2022-12-31T02:24:14.589Z,985.56
2022-12-31T02:25:14.573Z,985.63
2022-12-31T02:26:14.612Z,985.64
2022-12-31T02:27:14.560Z,985.67
2022-12-31T02:28:14.575Z,985.68
2022-12-31T02:29:14.543Z,985.61
2022-12-31T02:30:14.603Z,985.71
2022-12-31T02:31:16.767Z,985.64
2022-12-31T02:32:14.544Z,985.63
2022-12-31T02:33:14.487Z,985.67
2022-12-31T02:34:14.545Z,985.66
2022-12-31T02:35:14.481Z,985.72
2022-12-31T02:36:14.470Z,985.66
2022-12-31T02:37:14.443Z,985.69
2022-12-31T02:38:14.471Z,985.70
2022-12-31T02:39:14.421Z,985.68
2022-12-31T02:40:14.438Z,985.69
2022-12-31T02:41:14.427Z,985.74
2022-12-31T02:42:14.427Z,985.70
2022-12-31T02:43:14.426Z,985.71
2022-12-31T02:44:14.389Z,985.60
2022-12-31T02:45:14.373Z,985.67
2022-12-31T02:46:14.425Z,985.70
2022-12-31T02:47:14.344Z,985.69
2022-12-31T02:48:14.344Z,985.65
2022-12-31T02:49:14.332Z,985.72
2022-12-31T02:50:14.331Z,985.74
2022-12-31T02:51:14.322Z,985.76
2022-12-31T02:52:14.291Z,985.74
2022-12-31T02:53:14.279Z,985.72
2022-12-31T02:54:14.292Z,985.76
2022-12-31T02:55:14.273Z,985.72
2022-12-31T02:56:14.313Z,985.79
2022-12-31T02:57:14.250Z,985.74
2022-12-31T02:58:14.248Z,985.73
2022-12-31T02:59:14.215Z,985.83
2022-12-31T03:00:14.250Z,985.85
2022-12-31T03:01:14.327Z,985.83
2022-12-31T03:02:14.403Z,985.77
2022-12-31T03:03:14.175Z,985.74
2022-12-31T03:04:14.190Z,985.77
2022-12-31T03:05:14.163Z,985.76
2022-12-31T03:06:14.162Z,985.81
2022-12-31T03:07:14.128Z,985.75
2022-12-31T03:08:14.150Z,985.79
2022-12-31T03:09:14.127Z,985.75
2022-12-31T03:10:14.141Z,985.75
2022-12-31T03:11:14.776Z,985.78
2022-12-31T03:12:14.100Z,985.67
2022-12-31T03:13:14.052Z,985.71
2022-12-31T03:14:14.054Z,985.61
2022-12-31T03:15:14.042Z,985.58
2022-12-31T03:16:14.092Z,985.63
2022-12-31T03:17:14.026Z,985.62
2022-12-31T03:18:14.021Z,985.55
2022-12-31T03:19:14.005Z,985.51
2022-12-31T03:20:14.041Z,985.57
2022-12-31T03:21:13.995Z,985.54
2022-12-31T03:22:13.972Z,985.53
2022-12-31T03:23:13.992Z,985.56
2022-12-31T03:24:13.965Z,985.53
2022-12-31T03:25:13.966Z,985.57
2022-12-31T03:26:13.964Z,985.61
2022-12-31T03:27:13.930Z,985.56
2022-12-31T03:28:13.929Z,985.58
2022-12-31T03:29:13.889Z,985.63
2022-12-31T03:30:13.890Z,985.59
2022-12-31T03:31:13.929Z,985.59
2022-12-31T03:32:13.872Z,985.61
2022-12-31T03:33:14.511Z,985.66
2022-12-31T03:34:13.853Z,985.58
2022-12-31T03:35:13.862Z,985.66
2022-12-31T03:36:13.854Z,985.58
2022-12-31T03:37:13.821Z,985.64
2022-12-31T03:38:13.816Z,985.63
2022-12-31T03:39:13.784Z,985.65
2022-12-31T03:40:13.802Z,985.68
2022-12-31T03:41:13.809Z,985.71
2022-12-31T03:42:13.775Z,985.74
2022-12-31T03:43:13.736Z,985.76
2022-12-31T03:44:13.767Z,985.69
2022-12-31T03:45:13.732Z,985.69
2022-12-31T03:46:13.814Z,985.64
2022-12-31T03:47:13.694Z,985.73
2022-12-31T03:48:13.691Z,985.78
2022-12-31T03:49:13.695Z,985.82
2022-12-31T03:50:13.682Z,985.78
2022-12-31T03:51:13.651Z,985.82
2022-12-31T03:52:13.699Z,985.77
2022-12-31T03:53:13.652Z,985.78
2022-12-31T03:54:13.647Z,985.73
2022-12-31T03:55:13.619Z,985.68
2022-12-31T03:56:13.632Z,985.68
2022-12-31T03:57:13.598Z,985.75
2022-12-31T03:58:13.617Z,985.73
2022-12-31T03:59:13.583Z,985.87
2022-12-31T04:00:13.609Z,985.79
2022-12-31T04:01:13.616Z,985.83
2022-12-31T04:02:13.739Z,985.77
2022-12-31T04:03:13.603Z,985.70
2022-12-31T04:04:13.543Z,985.70
2022-12-31T04:05:13.515Z,985.67
2022-12-31T04:06:13.509Z,985.66
2022-12-31T04:07:13.495Z,985.67
2022-12-31T04:08:13.479Z,985.64
2022-12-31T04:09:13.487Z,985.66
2022-12-31T04:10:13.486Z,985.60
2022-12-31T04:11:18.960Z,985.69
2022-12-31T04:12:14.443Z,985.67
2022-12-31T04:13:13.460Z,985.72
2022-12-31T04:14:13.428Z,985.72
2022-12-31T04:15:13.424Z,985.73
2022-12-31T04:16:13.406Z,985.75
2022-12-31T04:17:13.431Z,985.77
2022-12-31T04:18:13.403Z,985.72
2022-12-31T04:19:13.375Z,985.78
2022-12-31T04:20:13.344Z,985.83
2022-12-31T04:21:14.017Z,985.76
2022-12-31T04:22:13.355Z,985.73
2022-12-31T04:23:13.348Z,985.70
2022-12-31T04:24:13.305Z,985.70
2022-12-31T04:25:13.319Z,985.74
2022-12-31T04:26:13.337Z,985.76
2022-12-31T04:27:13.289Z,985.75
2022-12-31T04:28:13.271Z,985.86
2022-12-31T04:29:13.272Z,985.84
2022-12-31T04:30:13.288Z,985.82
2022-12-31T04:31:13.290Z,985.83
2022-12-31T04:32:13.466Z,985.83
2022-12-31T04:33:13.235Z,985.86
2022-12-31T04:34:13.205Z,985.84
2022-12-31T04:35:13.207Z,985.85
2022-12-31T04:36:13.198Z,985.87
2022-12-31T04:37:13.174Z,985.91
2022-12-31T04:38:13.746Z,985.98
2022-12-31T04:39:13.205Z,985.87
2022-12-31T04:40:13.138Z,985.82
2022-12-31T04:41:13.150Z,985.83
2022-12-31T04:42:13.129Z,985.79
2022-12-31T04:43:13.149Z,985.86
2022-12-31T04:44:13.100Z,985.77
2022-12-31T04:45:13.106Z,985.89
2022-12-31T04:46:13.217Z,985.74
2022-12-31T04:47:14.494Z,985.83
2022-12-31T04:48:13.072Z,985.89
2022-12-31T04:49:13.055Z,985.86
2022-12-31T04:50:13.033Z,985.77
2022-12-31T04:51:13.029Z,985.80
2022-12-31T04:52:13.026Z,985.96
2022-12-31T04:53:13.092Z,985.83
2022-12-31T04:54:13.009Z,985.83
2022-12-31T04:55:12.998Z,985.78
2022-12-31T04:56:12.988Z,985.89
2022-12-31T04:57:13.198Z,985.94
2022-12-31T04:58:12.961Z,985.99
2022-12-31T04:59:12.963Z,985.94
2022-12-31T05:00:12.982Z,985.97
2022-12-31T05:01:13.002Z,985.97
2022-12-31T05:02:13.131Z,985.99
2022-12-31T05:03:13.019Z,985.93
2022-12-31T05:04:12.879Z,985.98
2022-12-31T05:05:12.890Z,985.96
2022-12-31T05:06:12.863Z,985.98
2022-12-31T05:07:12.867Z,986.01
2022-12-31T05:09:09.408Z,986.11
2022-12-31T05:10:09.347Z,986.10
2022-12-31T05:11:09.352Z,986.08
2022-12-31T05:12:09.369Z,986.08
2022-12-31T05:13:09.350Z,986.05
2022-12-31T05:14:09.310Z,986.05
2022-12-31T05:15:10.297Z,986.08
2022-12-31T05:16:09.289Z,986.03
2022-12-31T05:17:09.327Z,985.99
2022-12-31T05:18:09.277Z,986.01
2022-12-31T05:19:09.281Z,986.07
2022-12-31T05:20:09.718Z,986.08
2022-12-31T05:21:09.284Z,985.98
2022-12-31T05:22:09.260Z,986.08
2022-12-31T05:23:09.279Z,985.98
2022-12-31T05:24:09.210Z,986.05
2022-12-31T05:25:09.208Z,985.97
2022-12-31T05:26:09.302Z,986.03
2022-12-31T05:27:09.197Z,986.02
2022-12-31T05:28:09.223Z,986.01
2022-12-31T05:29:09.176Z,986.02
2022-12-31T05:30:09.143Z,986.06
2022-12-31T05:31:09.169Z,986.09
2022-12-31T05:32:09.157Z,986.08
2022-12-31T05:33:09.180Z,986.05
2022-12-31T05:34:09.159Z,986.03
2022-12-31T05:35:09.151Z,986.05
2022-12-31T05:36:09.090Z,986.08
2022-12-31T05:37:09.110Z,986.08
2022-12-31T05:38:09.080Z,986.08
2022-12-31T05:39:09.074Z,986.03
2022-12-31T05:40:09.070Z,986.00
2022-12-31T05:41:09.037Z,985.95
2022-12-31T05:42:09.049Z,986.06
2022-12-31T05:43:09.052Z,985.96
2022-12-31T05:44:09.007Z,985.98
2022-12-31T05:45:09.011Z,986.09
2022-12-31T05:46:09.069Z,986.09
2022-12-31T05:47:08.988Z,986.05
2022-12-31T05:48:08.977Z,986.00
2022-12-31T05:49:08.967Z,986.04
2022-12-31T05:50:08.949Z,986.05
2022-12-31T05:51:08.951Z,986.01
2022-12-31T05:52:08.922Z,986.04
2022-12-31T05:53:08.955Z,986.00
2022-12-31T05:54:08.930Z,986.04
2022-12-31T05:55:08.909Z,986.11
2022-12-31T05:56:08.953Z,986.05
2022-12-31T05:57:08.919Z,986.08
2022-12-31T05:58:08.869Z,986.05
2022-12-31T05:59:08.873Z,986.03
2022-12-31T06:00:08.839Z,986.01
2022-12-31T06:01:08.899Z,986.01
2022-12-31T06:02:08.821Z,986.00
2022-12-31T06:03:08.947Z,985.96
2022-12-31T06:04:08.806Z,985.97
2022-12-31T06:05:08.830Z,986.02
2022-12-31T06:06:08.800Z,986.07
2022-12-31T06:07:08.788Z,986.07
2022-12-31T06:08:08.793Z,986.12
2022-12-31T06:09:08.788Z,986.13
2022-12-31T06:10:09.259Z,986.17
2022-12-31T06:11:08.749Z,986.16
2022-12-31T06:12:08.713Z,986.12
2022-12-31T06:13:08.749Z,986.13
2022-12-31T06:14:08.711Z,986.20
2022-12-31T06:15:08.711Z,986.27
2022-12-31T06:16:08.782Z,986.28
2022-12-31T06:17:08.690Z,986.31
2022-12-31T06:18:08.652Z,986.17
2022-12-31T06:19:08.650Z,986.31
2022-12-31T06:20:12.715Z,986.28
2022-12-31T06:21:08.758Z,986.25
2022-12-31T06:22:08.618Z,986.28
2022-12-31T06:23:08.617Z,986.28
2022-12-31T06:24:08.588Z,986.36
2022-12-31T06:25:08.598Z,986.32
2022-12-31T06:26:08.599Z,986.32
2022-12-31T06:27:08.573Z,986.32
2022-12-31T06:28:08.538Z,986.29
2022-12-31T06:29:08.549Z,986.30
2022-12-31T06:30:08.534Z,986.26
2022-12-31T06:31:08.606Z,986.29
2022-12-31T06:32:08.507Z,986.24
2022-12-31T06:33:08.515Z,986.31
2022-12-31T06:34:08.501Z,986.31
2022-12-31T06:35:08.503Z,986.33
2022-12-31T06:36:08.470Z,986.29
2022-12-31T06:37:08.748Z,986.40
2022-12-31T06:38:08.440Z,986.37
2022-12-31T06:39:08.445Z,986.41
2022-12-31T06:40:08.406Z,986.37
2022-12-31T06:41:08.427Z,986.36
2022-12-31T06:42:08.401Z,986.50
2022-12-31T06:43:08.468Z,986.46
2022-12-31T06:44:08.369Z,986.48
2022-12-31T06:45:08.393Z,986.47
2022-12-31T06:46:08.490Z,986.50
2022-12-31T06:47:08.369Z,986.55
2022-12-31T06:48:08.370Z,986.62
2022-12-31T06:49:08.343Z,986.55
2022-12-31T06:50:08.336Z,986.67
2022-12-31T06:51:13.404Z,986.59
2022-12-31T06:52:09.305Z,986.67
2022-12-31T06:53:08.749Z,986.73
2022-12-31T06:54:08.283Z,986.65
2022-12-31T06:55:08.278Z,986.74
2022-12-31T06:56:08.357Z,986.76
2022-12-31T06:57:08.258Z,986.85
2022-12-31T06:58:08.229Z,986.77
2022-12-31T06:59:08.264Z,986.80
2022-12-31T07:00:08.209Z,986.86
2022-12-31T07:01:08.262Z,986.76
2022-12-31T07:02:08.242Z,986.79
2022-12-31T07:03:08.231Z,986.79
2022-12-31T07:04:09.900Z,986.71
2022-12-31T07:05:08.285Z,986.83
2022-12-31T07:06:08.161Z,986.80
2022-12-31T07:07:08.171Z,986.82
2022-12-31T07:08:08.177Z,986.75
2022-12-31T07:09:08.144Z,986.95
2022-12-31T07:10:08.123Z,986.86
2022-12-31T07:11:08.138Z,986.84
2022-12-31T07:12:08.086Z,986.90
2022-12-31T07:13:08.116Z,986.96
2022-12-31T07:14:08.086Z,986.95
2022-12-31T07:15:08.092Z,986.97
2022-12-31T07:16:08.074Z,987.03
2022-12-31T07:17:08.107Z,986.93
2022-12-31T07:18:08.040Z,986.93
2022-12-31T07:19:08.095Z,986.98
2022-12-31T07:20:08.024Z,986.99
2022-12-31T07:21:08.029Z,987.04
2022-12-31T07:22:07.990Z,987.04
2022-12-31T07:23:08.019Z,987.11
2022-12-31T07:24:07.989Z,987.06
2022-12-31T07:25:07.980Z,987.10
2022-12-31T07:26:08.009Z,987.14
2022-12-31T07:27:07.972Z,987.12
2022-12-31T07:28:07.934Z,987.17
2022-12-31T07:29:08.240Z,987.02
2022-12-31T07:30:07.931Z,987.03
2022-12-31T07:31:07.962Z,987.06
2022-12-31T07:32:07.892Z,987.06
2022-12-31T07:33:07.893Z,987.11
2022-12-31T07:34:07.870Z,987.00
2022-12-31T07:35:07.880Z,987.07
2022-12-31T07:36:07.839Z,987.08
2022-12-31T07:37:07.841Z,987.04
2022-12-31T07:38:07.822Z,987.05
2022-12-31T07:39:07.828Z,987.03
2022-12-31T07:40:08.228Z,987.04
2022-12-31T07:41:10.094Z,986.97
2022-12-31T07:42:07.763Z,986.97
2022-12-31T07:43:07.821Z,987.04
2022-12-31T07:44:07.782Z,986.99
2022-12-31T07:45:07.784Z,986.98
2022-12-31T07:46:07.835Z,987.01
2022-12-31T07:47:07.752Z,987.04
2022-12-31T07:48:07.740Z,987.00
2022-12-31T07:49:07.733Z,987.04
2022-12-31T07:50:07.699Z,987.02
2022-12-31T07:51:08.239Z,987.03
2022-12-31T07:52:07.690Z,987.12
2022-12-31T07:53:07.685Z,987.08
2022-12-31T07:54:13.642Z,987.05
2022-12-31T07:55:08.689Z,987.17
2022-12-31T07:56:12.371Z,987.05
2022-12-31T07:57:07.663Z,987.07
2022-12-31T07:58:07.627Z,987.21
2022-12-31T07:59:07.590Z,987.15
2022-12-31T08:00:07.613Z,987.15
2022-12-31T08:01:07.688Z,987.18
2022-12-31T08:02:07.983Z,987.32
2022-12-31T08:03:07.612Z,987.20
2022-12-31T08:04:07.561Z,987.26
2022-12-31T08:05:07.621Z,987.27
2022-12-31T08:06:07.664Z,987.13
2022-12-31T08:07:07.540Z,987.26
2022-12-31T08:08:07.510Z,987.33
2022-12-31T08:09:07.519Z,987.27
2022-12-31T08:10:11.230Z,987.28
2022-12-31T08:11:08.497Z,987.24
2022-12-31T08:12:07.430Z,987.23
2022-12-31T08:13:07.775Z,987.33
2022-12-31T08:14:07.402Z,987.29
2022-12-31T08:15:07.416Z,987.42
2022-12-31T08:16:07.422Z,987.28
2022-12-31T08:17:07.370Z,987.36
2022-12-31T08:18:07.371Z,987.44
2022-12-31T08:19:07.420Z,987.37
2022-12-31T08:20:07.360Z,987.35
2022-12-31T08:21:07.331Z,987.39
2022-12-31T08:22:07.392Z,987.36
2022-12-31T08:23:07.342Z,987.38
2022-12-31T08:24:07.327Z,987.43
2022-12-31T08:25:07.294Z,987.43
2022-12-31T08:26:07.435Z,987.42
2022-12-31T08:27:07.331Z,987.46
2022-12-31T08:28:07.536Z,987.43
2022-12-31T08:29:07.302Z,987.44
2022-12-31T08:30:07.320Z,987.45
2022-12-31T08:31:07.864Z,987.42
2022-12-31T08:32:07.234Z,987.49
2022-12-31T08:33:07.210Z,987.43
2022-12-31T08:34:08.174Z,987.42
2022-12-31T08:35:07.189Z,987.47
2022-12-31T08:36:07.201Z,987.49
2022-12-31T08:37:07.254Z,987.50
2022-12-31T08:38:07.171Z,987.54
2022-12-31T08:39:07.157Z,987.57
2022-12-31T08:40:07.188Z,987.63
2022-12-31T08:41:07.121Z,987.61
2022-12-31T08:42:07.195Z,987.52
2022-12-31T08:43:07.210Z,987.56
2022-12-31T08:44:07.173Z,987.56
2022-12-31T08:45:07.127Z,987.55
2022-12-31T08:46:07.145Z,987.52
2022-12-31T08:47:07.213Z,987.56
2022-12-31T08:48:07.069Z,987.57
2022-12-31T08:49:07.051Z,987.72
2022-12-31T08:50:07.058Z,987.60
2022-12-31T08:51:07.050Z,987.62
2022-12-31T08:52:07.050Z,987.62
2022-12-31T08:53:07.023Z,987.66
2022-12-31T08:54:07.055Z,987.67
2022-12-31T08:55:07.083Z,987.83
2022-12-31T08:56:07.188Z,987.86
2022-12-31T08:57:07.023Z,987.71
2022-12-31T08:58:07.030Z,987.78
2022-12-31T08:59:07.260Z,987.88
2022-12-31T09:00:07.031Z,987.83
2022-12-31T09:01:07.093Z,987.90
2022-12-31T09:02:07.133Z,987.91
2022-12-31T09:03:06.904Z,987.87
2022-12-31T09:04:07.003Z,987.89
2022-12-31T09:05:06.884Z,987.83
2022-12-31T09:06:06.889Z,987.76
2022-12-31T09:07:07.205Z,987.77
2022-12-31T09:08:06.880Z,987.90
2022-12-31T09:09:06.868Z,987.80
2022-12-31T09:10:06.871Z,987.89
2022-12-31T09:11:06.832Z,987.79
2022-12-31T09:12:06.877Z,987.83
2022-12-31T09:13:06.823Z,987.78
2022-12-31T09:14:06.831Z,987.82
2022-12-31T09:15:06.803Z,987.92
2022-12-31T09:16:06.896Z,987.93
2022-12-31T09:17:06.762Z,987.97
2022-12-31T09:18:06.759Z,987.96
2022-12-31T09:19:06.785Z,988.01
2022-12-31T09:20:06.745Z,988.02
2022-12-31T09:21:06.723Z,988.08
2022-12-31T09:22:06.737Z,987.99
2022-12-31T09:23:06.708Z,988.04
2022-12-31T09:24:09.465Z,987.99
2022-12-31T09:25:06.692Z,988.08
2022-12-31T09:26:06.730Z,988.08
2022-12-31T09:27:06.662Z,988.16
2022-12-31T09:28:06.672Z,987.99
2022-12-31T09:29:06.641Z,988.08
2022-12-31T09:30:06.779Z,988.10
2022-12-31T09:31:06.627Z,988.07
2022-12-31T09:32:06.651Z,988.03
2022-12-31T09:33:06.613Z,988.18
2022-12-31T09:34:06.626Z,988.14
2022-12-31T09:35:06.593Z,988.11
2022-12-31T09:36:06.614Z,988.19
2022-12-31T09:37:06.577Z,988.17
2022-12-31T09:38:11.403Z,988.14
2022-12-31T09:39:06.551Z,988.13
2022-12-31T09:40:06.553Z,988.12
2022-12-31T09:41:06.519Z,988.08
2022-12-31T09:42:06.775Z,988.13
2022-12-31T09:43:06.507Z,987.92
2022-12-31T09:44:06.499Z,987.95
2022-12-31T09:45:06.482Z,988.06
2022-12-31T09:46:07.200Z,988.08
2022-12-31T09:47:06.475Z,988.15
2022-12-31T09:48:06.453Z,988.05
2022-12-31T09:49:06.443Z,988.05
2022-12-31T09:50:06.457Z,988.04
2022-12-31T09:51:06.419Z,988.05
2022-12-31T09:52:06.483Z,988.01
2022-12-31T09:53:06.432Z,988.13
2022-12-31T09:54:06.423Z,988.11
2022-12-31T09:55:06.383Z,988.16
2022-12-31T09:56:06.495Z,988.11
2022-12-31T09:57:06.372Z,988.13
2022-12-31T09:58:06.393Z,988.04
2022-12-31T09:59:06.345Z,988.00
2022-12-31T10:00:06.368Z,987.89
2022-12-31T10:01:06.401Z,987.94
2022-12-31T10:02:06.452Z,988.09
2022-12-31T10:03:06.304Z,988.10
2022-12-31T10:04:06.341Z,987.99
2022-12-31T10:05:06.283Z,987.85
2022-12-31T10:06:06.314Z,987.93
2022-12-31T10:07:06.260Z,987.90
2022-12-31T10:08:06.276Z,987.93
2022-12-31T10:10:02.726Z,987.98
2022-12-31T10:11:02.639Z,988.01
2022-12-31T10:12:02.656Z,988.00
2022-12-31T10:13:02.622Z,988.07
2022-12-31T10:14:02.639Z,988.05
2022-12-31T10:15:02.608Z,988.18
2022-12-31T10:16:02.638Z,988.19
2022-12-31T10:17:02.629Z,988.21
2022-12-31T10:18:02.591Z,988.24
2022-12-31T10:19:02.571Z,988.23
2022-12-31T10:20:02.578Z,988.24
2022-12-31T10:21:02.542Z,988.30
2022-12-31T10:22:02.602Z,988.26
2022-12-31T10:23:02.541Z,988.26
2022-12-31T10:24:02.538Z,988.28
2022-12-31T10:25:02.504Z,988.27
2022-12-31T10:26:02.528Z,988.37
2022-12-31T10:27:02.494Z,988.39
2022-12-31T10:28:02.515Z,988.32
2022-12-31T10:29:02.458Z,988.41
2022-12-31T10:30:02.470Z,988.33
2022-12-31T10:31:03.204Z,988.32
2022-12-31T10:32:02.461Z,988.33
2022-12-31T10:33:02.517Z,988.35
2022-12-31T10:34:02.450Z,988.34
2022-12-31T10:35:02.442Z,988.28
2022-12-31T10:36:02.430Z,988.22
2022-12-31T10:37:02.452Z,988.23
2022-12-31T10:38:02.394Z,988.23
2022-12-31T10:39:05.075Z,988.37
2022-12-31T10:40:03.412Z,988.34
2022-12-31T10:41:02.354Z,988.30
2022-12-31T10:42:02.339Z,988.40
2022-12-31T10:43:02.735Z,988.37
2022-12-31T10:44:02.328Z,988.33
2022-12-31T10:45:02.309Z,988.33
2022-12-31T10:46:02.348Z,988.26
2022-12-31T10:47:02.351Z,988.26
2022-12-31T10:48:02.298Z,988.34
2022-12-31T10:49:02.313Z,988.26
2022-12-31T10:50:02.279Z,988.32
2022-12-31T10:51:02.243Z,988.34
2022-12-31T10:52:02.294Z,988.31
2022-12-31T10:53:02.248Z,988.27
2022-12-31T10:54:02.239Z,988.19
2022-12-31T10:55:02.212Z,988.16
2022-12-31T10:56:02.208Z,988.23
2022-12-31T10:57:02.214Z,988.23
2022-12-31T10:58:04.420Z,988.26
2022-12-31T10:59:02.191Z,988.17
2022-12-31T11:00:02.226Z,988.24
2022-12-31T11:01:02.273Z,988.16
2022-12-31T11:02:02.257Z,988.25
2022-12-31T11:03:02.179Z,988.17
2022-12-31T11:04:02.143Z,988.24
2022-12-31T11:05:02.120Z,988.09
2022-12-31T11:06:02.148Z,988.24
2022-12-31T11:07:02.116Z,988.25
2022-12-31T11:08:02.108Z,988.27
2022-12-31T11:09:02.072Z,988.27
2022-12-31T11:10:02.069Z,988.29
2022-12-31T11:11:02.069Z,988.36
2022-12-31T11:12:02.077Z,988.34
2022-12-31T11:13:02.053Z,988.31
2022-12-31T11:14:02.044Z,988.34
2022-12-31T11:15:02.012Z,988.25
2022-12-31T11:16:02.088Z,988.22
2022-12-31T11:17:01.985Z,988.20
2022-12-31T11:18:02.016Z,988.27
2022-12-31T11:19:01.995Z,988.41
2022-12-31T11:20:01.971Z,988.39
2022-12-31T11:21:01.936Z,988.46
2022-12-31T11:22:01.977Z,988.42
2022-12-31T11:23:01.928Z,988.45
2022-12-31T11:24:01.927Z,988.37
2022-12-31T11:25:01.900Z,988.47
2022-12-31T11:26:01.934Z,988.41
2022-12-31T11:27:01.881Z,988.53
2022-12-31T11:28:01.970Z,988.52
2022-12-31T11:29:01.878Z,988.42
2022-12-31T11:30:01.899Z,988.44
2022-12-31T11:31:01.928Z,988.33
2022-12-31T11:32:01.862Z,988.31
2022-12-31T11:33:02.029Z,988.32
2022-12-31T11:34:01.866Z,988.31
2022-12-31T11:35:01.818Z,988.33
2022-12-31T11:36:01.811Z,988.30
2022-12-31T11:37:01.800Z,988.24
2022-12-31T11:38:01.866Z,988.42
2022-12-31T11:39:01.791Z,988.32
2022-12-31T11:40:01.792Z,988.38
2022-12-31T11:41:01.747Z,988.39
2022-12-31T11:42:01.752Z,988.40
2022-12-31T11:43:01.718Z,988.37
2022-12-31T11:44:01.782Z,988.33
2022-12-31T11:45:01.742Z,988.42
2022-12-31T11:46:01.836Z,988.40
2022-12-31T11:47:01.685Z,988.40
2022-12-31T11:48:29.732Z,988.49
2022-12-31T11:49:02.687Z,988.46
2022-12-31T11:50:01.702Z,988.45
2022-12-31T11:51:01.642Z,988.46
2022-12-31T11:52:01.662Z,988.46
2022-12-31T11:53:01.621Z,988.47
2022-12-31T11:54:01.651Z,988.44
2022-12-31T11:55:01.607Z,988.39
2022-12-31T11:56:01.604Z,988.36
2022-12-31T11:57:01.580Z,988.32
2022-12-31T11:58:01.562Z,988.20
2022-12-31T11:59:06.179Z,988.24
2022-12-31T12:00:02.624Z,988.28
2022-12-31T12:01:01.608Z,988.34
2022-12-31T12:02:01.576Z,988.24
2022-12-31T12:03:01.639Z,988.30
2022-12-31T12:04:01.592Z,988.30
2022-12-31T12:05:06.564Z,988.36
2022-12-31T12:06:02.502Z,988.32
2022-12-31T12:07:01.502Z,988.35
2022-12-31T12:08:01.483Z,988.37
2022-12-31T12:09:01.563Z,988.28
2022-12-31T12:10:01.463Z,988.24
2022-12-31T12:11:01.453Z,988.27
2022-12-31T12:12:01.496Z,988.31
2022-12-31T12:13:01.437Z,988.31
2022-12-31T12:14:01.429Z,988.29
2022-12-31T12:15:01.575Z,988.38
2022-12-31T12:16:01.422Z,988.38
2022-12-31T12:17:05.144Z,988.28
2022-12-31T12:18:01.372Z,988.39
2022-12-31T12:19:01.412Z,988.31
2022-12-31T12:20:01.540Z,988.27
2022-12-31T12:21:01.383Z,988.28
2022-12-31T12:22:01.341Z,988.25
2022-12-31T12:23:01.337Z,988.25
2022-12-31T12:24:01.330Z,988.23
2022-12-31T12:25:01.312Z,988.27
2022-12-31T12:26:01.318Z,988.29
2022-12-31T12:27:01.311Z,988.23
2022-12-31T12:28:01.275Z,988.24
2022-12-31T12:29:01.269Z,988.28
2022-12-31T12:30:02.210Z,988.16
2022-12-31T12:31:01.274Z,988.25